Time;durP1;ratioP1;P1;durP2;ratioP2;P2;SDS_P1;SDS_P2;PMS_P1;PMS_P2;Temp;Humidity;BMP_temperature;BMP_pressure;BME280_temperature;BME280_humidity;BME280_pressure;Samples;Min_cycle;Max_cycle;Signal;HPM_P1;HPM_P2
2022/07/14 00:00:32;;;;;;;3.37;1.10;;;;;;;17.02;69.90;99756.13;1715525;81;21219;-59
2022/07/14 00:02:59;;;;;;;2.62;0.80;;;;;;;17.10;69.63;99761.37;1745900;80;21063;-59
2022/07/14 00:05:26;;;;;;;3.12;0.80;;;;;;;17.14;69.58;99763.16;1732013;80;21098;-59
2022/07/14 00:07:53;;;;;;;4.20;1.02;;;;;;;17.18;69.38;99766.61;1710979;82;21087;-59
2022/07/14 00:10:20;;;;;;;2.98;1.00;;;;;;;17.18;69.27;99766.61;1685549;83;21156;-57
2022/07/14 00:12:49;;;;;;;1.92;0.80;;;;;;;17.16;69.40;99776.58;1673616;84;21024;-58
2022/07/14 00:15:16;;;;;;;3.60;1.07;;;;;;;17.16;69.20;99771.26;1677427;83;21093;-58
2022/07/14 00:17:42;;;;;;;1.90;0.78;;;;;;;17.18;69.24;99778.58;1732857;80;21042;-58
2022/07/14 00:20:10;;;;;;;4.55;0.85;;;;;;;17.19;69.18;99782.87;1739346;81;21105;-58
2022/07/14 00:22:37;;;;;;;2.00;0.72;;;;;;;17.18;69.16;99777.25;1740686;80;21937;-58
2022/07/14 00:25:05;;;;;;;3.33;1.07;;;;;;;17.17;69.22;99780.08;1735902;80;21651;-57
2022/07/14 00:27:31;;;;;;;4.28;1.10;;;;;;;17.16;69.13;99790.38;1734831;81;21475;-58
2022/07/14 00:29:58;;;;;;;2.40;0.55;;;;;;;17.19;69.09;99780.20;1737703;81;21600;-46
2022/07/14 00:32:24;;;;;;;2.92;1.00;;;;;;;17.27;69.06;99779.31;1736322;80;21698;-46
2022/07/14 00:34:51;;;;;;;4.28;0.90;;;;;;;17.29;68.86;99783.12;1736954;80;22079;-47
2022/07/14 00:37:18;;;;;;;2.72;0.80;;;;;;;17.27;68.75;99786.78;1736386;80;21120;-47
2022/07/14 00:39:57;;;;;;;4.60;1.02;;;;;;;17.23;68.83;99786.83;1740463;80;21025;-46
2022/07/14 00:42:38;;;;;;;3.12;0.85;;;;;;;17.18;68.91;99783.89;1694559;82;21667;-47
2022/07/14 00:45:11;;;;;;;2.60;1.10;;;;;;;17.12;69.23;99793.09;1736976;81;21011;-47
2022/07/14 00:47:38;;;;;;;2.52;0.82;;;;;;;17.09;69.32;99795.08;1735605;81;21163;-47
2022/07/14 00:50:07;;;;;;;3.30;1.07;;;;;;;17.10;69.45;99790.61;1738186;81;21125;-47
2022/07/14 00:52:34;;;;;;;6.83;1.00;;;;;;;17.09;69.32;99792.93;1739521;80;21054;-48
2022/07/14 00:55:00;;;;;;;3.90;1.25;;;;;;;17.04;69.60;99788.14;1733211;81;21134;-47
2022/07/14 00:57:27;;;;;;;4.40;0.95;;;;;;;16.97;70.00;99790.39;1742364;80;21011;-48
2022/07/14 00:59:54;;;;;;;2.47;0.78;;;;;;;16.94;70.32;99785.42;1736992;81;21155;-48
2022/07/14 01:02:20;;;;;;;5.15;1.40;;;;;;;16.95;70.66;99789.23;1738508;80;21076;-47
2022/07/14 01:04:50;;;;;;;3.65;1.00;;;;;;;16.95;70.89;99793.22;1742487;81;21110;-47
2022/07/14 01:07:18;;;;;;;3.08;1.10;;;;;;;16.93;71.26;99795.72;1740587;80;21082;-47
2022/07/14 01:09:46;;;;;;;2.65;1.00;;;;;;;16.90;71.44;99800.39;1737544;80;21062;-47
2022/07/14 01:12:15;;;;;;;3.30;1.10;;;;;;;16.83;71.50;99794.63;1741115;80;21186;-47
2022/07/14 01:14:42;;;;;;;2.95;1.10;;;;;;;16.80;71.64;99798.45;1741396;80;21086;-47
2022/07/14 01:17:09;;;;;;;3.08;1.20;;;;;;;16.80;71.64;99800.30;1743313;81;21063;-47
2022/07/14 01:19:37;;;;;;;2.85;1.20;;;;;;;16.79;71.59;99795.97;1744331;81;21001;-47
2022/07/14 01:22:05;;;;;;;3.37;0.93;;;;;;;16.75;71.67;99811.44;1741543;81;21560;-47
2022/07/14 01:24:33;;;;;;;3.83;0.93;;;;;;;16.74;71.74;99804.98;1740876;80;21138;-47
2022/07/14 01:27:02;;;;;;;3.47;1.10;;;;;;;16.70;71.84;99811.15;1730752;81;21096;-48
2022/07/14 01:29:29;;;;;;;2.80;0.90;;;;;;;16.68;71.85;99807.84;1730004;81;21091;-47
2022/07/14 01:31:56;;;;;;;6.20;0.90;;;;;;;16.72;71.71;99820.58;1743726;81;21129;-48
2022/07/14 01:34:22;;;;;;;3.05;1.15;;;;;;;16.75;71.66;99818.59;1738207;80;21084;-48
2022/07/14 01:36:49;;;;;;;2.50;1.02;;;;;;;16.76;71.66;99814.91;1737465;81;21155;-47
2022/07/14 01:39:18;;;;;;;5.72;1.37;;;;;;;16.75;71.59;99818.08;1736074;81;21058;-47
2022/07/14 01:41:46;;;;;;;3.45;1.30;;;;;;;16.70;71.71;99807.98;1761823;79;21393;-47
2022/07/14 01:44:12;;;;;;;2.17;0.95;;;;;;;16.68;71.85;99809.17;1750337;79;21356;-47
2022/07/14 01:46:39;;;;;;;6.58;1.37;;;;;;;16.69;71.79;99806.83;1754761;79;21046;-47
2022/07/14 01:49:06;;;;;;;3.15;1.00;;;;;;;16.74;71.54;99812.44;1751095;79;21434;-47
2022/07/14 01:51:33;;;;;;;3.20;1.00;;;;;;;16.77;71.25;99831.20;1754672;79;21047;-47
2022/07/14 01:54:01;;;;;;;3.72;1.12;;;;;;;16.78;71.01;99823.53;1753508;79;21058;-48
2022/07/14 01:56:28;;;;;;;3.30;0.98;;;;;;;16.74;70.94;99824.91;1750015;79;21075;-48
2022/07/14 01:58:55;;;;;;;2.33;0.98;;;;;;;16.69;71.07;99828.08;1754048;79;21099;-47
2022/07/14 02:01:40;;;;;;;3.02;1.42;;;;;;;16.67;71.10;99832.75;1755426;79;21191;-48
2022/07/14 02:04:09;;;;;;;2.30;0.80;;;;;;;16.70;70.92;99824.43;1759239;79;21062;-48
2022/07/14 02:06:40;;;;;;;2.37;0.88;;;;;;;16.78;70.79;99833.67;1753499;79;21133;-48
2022/07/14 02:09:07;;;;;;;3.67;0.90;;;;;;;16.83;70.51;99835.81;1755224;80;21104;-48
2022/07/14 02:14:21;;;;;;;;;;;;;;;16.77;70.49;99837.33;1723594;82;21138;-48
2022/07/14 02:16:47;;;;;;;3.55;0.90;;;;;;;16.76;70.35;99831.70;1735887;81;20199;-48
2022/07/14 02:19:14;;;;;;;3.67;0.90;;;;;;;16.80;70.25;99831.66;1767024;79;21078;-48
2022/07/14 02:21:41;;;;;;;4.60;1.07;;;;;;;16.81;70.00;99848.42;1762158;79;21023;-48
2022/07/14 02:24:09;;;;;;;4.33;1.60;;;;;;;16.78;70.03;99856.73;1752116;79;21348;-48
2022/07/14 02:26:37;;;;;;;3.47;1.22;;;;;;;16.67;70.11;99850.83;1726145;81;21212;-48
2022/07/14 02:29:06;;;;;;;3.55;1.27;;;;;;;16.62;70.34;99862.48;1747791;79;21004;-48
2022/07/14 02:31:34;;;;;;;5.08;1.10;;;;;;;16.60;70.47;99865.00;1757047;79;21560;-47
2022/07/14 02:34:01;;;;;;;3.00;1.10;;;;;;;16.61;70.56;99869.30;1757415;79;21051;-50
2022/07/14 02:36:28;;;;;;;2.65;0.90;;;;;;;16.60;70.67;99863.16;1752815;79;21079;-47
2022/07/14 02:38:56;;;;;;;4.90;1.02;;;;;;;16.61;70.70;99871.95;1753017;79;21195;-47
2022/07/14 02:41:23;;;;;;;3.85;1.00;;;;;;;16.57;70.87;99877.30;1762125;79;21082;-48
2022/07/14 02:43:50;;;;;;;2.37;0.90;;;;;;;16.53;70.90;99880.30;1757724;79;21062;-48
2022/07/14 02:46:18;;;;;;;2.30;0.90;;;;;;;16.52;70.81;99889.77;1742443;80;21145;-48
2022/07/14 02:48:44;;;;;;;2.72;0.90;;;;;;;16.51;70.80;99890.28;1754162;79;21450;-48
2022/07/14 02:51:12;;;;;;;3.37;0.90;;;;;;;16.56;70.61;99890.23;1759626;79;21138;-48
2022/07/14 02:53:39;;;;;;;2.70;0.80;;;;;;;16.60;70.52;99885.74;1760545;80;21068;-46
2022/07/14 02:56:06;;;;;;;3.10;1.00;;;;;;;16.59;70.43;99889.39;1765084;79;21414;-47
2022/07/14 02:58:34;;;;;;;3.92;1.17;;;;;;;16.58;70.56;99893.58;1718950;79;21032;-47
2022/07/14 03:01:08;;;;;;;5.60;1.20;;;;;;;16.54;70.59;99897.05;1771837;79;21040;-47
2022/07/14 03:03:35;;;;;;;2.67;1.05;;;;;;;16.52;70.73;99896.41;1768571;79;21775;-47
2022/07/14 03:06:13;;;;;;;3.60;1.30;;;;;;;16.52;70.73;99912.34;1778606;79;21034;-46
2022/07/14 03:08:41;;;;;;;3.08;1.10;;;;;;;16.53;70.72;99904.20;1759535;79;21453;-46
2022/07/14 03:11:08;;;;;;;5.10;1.12;;;;;;;16.56;70.77;99905.70;1767812;79;21071;-47
2022/07/14 03:13:35;;;;;;;2.65;1.15;;;;;;;16.58;70.77;99914.31;1764425;79;21568;-46
2022/07/14 03:16:04;;;;;;;4.47;1.05;;;;;;;16.57;70.76;99903.35;1769276;79;21059;-46
2022/07/14 03:18:31;;;;;;;2.55;1.15;;;;;;;16.52;70.89;99906.55;1766678;79;21035;-46
2022/07/14 03:20:57;;;;;;;2.25;0.82;;;;;;;16.50;70.96;99911.18;1753445;79;21114;-47
2022/07/14 03:23:24;;;;;;;2.70;1.15;;;;;;;16.53;70.88;99922.79;1771596;79;21042;-46
2022/07/14 03:25:52;;;;;;;3.87;1.12;;;;;;;16.57;70.67;99933.08;1777022;79;21133;-46
2022/07/14 03:28:18;;;;;;;3.92;1.02;;;;;;;16.59;70.58;99927.08;1772743;79;21138;-46
2022/07/14 03:30:45;;;;;;;3.22;1.12;;;;;;;16.58;70.68;99928.10;1762143;79;20997;-46
2022/07/14 03:33:12;;;;;;;3.08;1.12;;;;;;;16.59;70.81;99937.20;1766392;79;21115;-46
2022/07/14 03:35:39;;;;;;;4.17;1.00;;;;;;;16.61;70.56;99934.38;1760004;79;21569;-47
2022/07/14 03:38:06;;;;;;;2.17;0.90;;;;;;;16.67;70.72;99950.95;1774280;79;21073;-46
2022/07/14 03:40:34;;;;;;;5.08;1.15;;;;;;;16.80;70.27;99947.75;1766701;79;21140;-46
2022/07/14 03:43:01;;;;;;;4.58;1.27;;;;;;;16.87;69.84;99954.05;1770725;79;21000;-46
2022/07/14 03:45:28;;;;;;;2.98;1.32;;;;;;;16.91;69.69;99956.67;1758710;79;21114;-47
2022/07/14 03:47:55;;;;;;;4.50;1.35;;;;;;;16.93;69.52;99956.50;1767233;79;21036;-46
2022/07/14 03:50:22;;;;;;;5.10;1.12;;;;;;;17.00;69.30;99953.48;1758788;79;21027;-50
2022/07/14 03:52:49;;;;;;;4.03;1.07;;;;;;;17.10;69.16;99964.72;1763050;79;21121;-47
2022/07/14 03:55:18;;;;;;;3.00;1.17;;;;;;;17.13;69.16;99964.38;1767065;79;21020;-46
2022/07/14 03:57:44;;;;;;;2.45;1.05;;;;;;;17.20;68.92;99981.27;1775144;79;21059;-47
2022/07/14 04:00:12;;;;;;;4.00;1.10;;;;;;;17.18;68.53;99976.63;1774140;79;21078;-47
2022/07/14 04:02:46;;;;;;;2.83;1.20;;;;;;;17.11;68.42;99973.00;1766054;80;21094;-47
2022/07/14 04:05:15;;;;;;;4.30;1.27;;;;;;;17.14;68.62;99977.16;1771817;79;21153;-47
2022/07/14 04:07:42;;;;;;;4.35;1.42;;;;;;;17.14;68.23;99965.19;1762532;79;21097;-46
2022/07/14 04:10:09;;;;;;;2.83;1.05;;;;;;;17.13;68.30;99964.38;1744185;80;21081;-47
2022/07/14 04:12:37;;;;;;;4.17;1.20;;;;;;;17.12;68.06;99965.36;1766273;79;21042;-47
2022/07/14 04:15:05;;;;;;;2.85;1.20;;;;;;;17.12;68.07;99961.89;1763798;79;21066;-46
2022/07/14 04:17:34;;;;;;;3.35;1.22;;;;;;;17.10;68.33;99962.06;1763836;79;21132;-46
2022/07/14 04:20:01;;;;;;;2.35;1.07;;;;;;;17.09;68.44;99968.37;1758845;80;21020;-47
2022/07/14 04:22:29;;;;;;;6.05;1.30;;;;;;;17.09;68.28;99961.21;1743878;79;21093;-47
2022/07/14 04:24:56;;;;;;;3.10;1.20;;;;;;;17.11;68.35;99969.52;1756535;79;21027;-47
2022/07/14 04:27:24;;;;;;;4.78;1.70;;;;;;;17.10;68.34;99974.02;1758039;79;21113;-47
2022/07/14 04:29:52;;;;;;;4.47;1.57;;;;;;;17.11;68.61;99972.18;1760373;79;21951;-47
2022/07/14 04:32:20;;;;;;;10.03;1.95;;;;;;;17.12;68.56;99973.34;1764153;79;20994;-48
2022/07/14 04:34:46;;;;;;;3.98;1.35;;;;;;;17.20;67.91;99978.61;1766500;79;21073;-48
2022/07/14 04:37:14;;;;;;;4.10;1.40;;;;;;;17.26;67.66;99979.25;1768932;80;21062;-47
2022/07/14 04:39:42;;;;;;;7.28;1.60;;;;;;;17.31;66.84;99983.19;1764019;79;21038;-47
2022/07/14 04:42:09;;;;;;;3.20;1.35;;;;;;;17.33;67.00;99990.48;1753179;79;21163;-47
2022/07/14 04:44:36;;;;;;;3.40;1.37;;;;;;;17.36;67.09;99995.45;1751350;80;21636;-47
2022/07/14 04:47:02;;;;;;;3.55;1.30;;;;;;;17.38;67.04;99996.09;1754307;79;21604;-47
2022/07/14 04:52:14;;;;;;;2.98;1.40;;;;;;;17.49;66.61;99996.21;1748862;80;20924;-47
2022/07/14 04:54:44;;;;;;;5.47;1.70;;;;;;;17.51;66.44;100010.16;1754584;80;21789;-47
2022/07/14 04:57:29;;;;;;;3.98;1.57;;;;;;;17.45;66.37;100005.86;1752522;80;21067;-46
2022/07/14 04:59:57;;;;;;;3.17;1.32;;;;;;;17.40;66.65;100004.72;1751259;79;21093;-46
2022/07/14 05:02:23;;;;;;;3.85;1.40;;;;;;;17.36;66.86;100010.91;1749094;79;21110;-46
2022/07/14 05:04:51;;;;;;;5.97;1.92;;;;;;;17.37;66.90;100014.41;1754730;79;21567;-47
2022/07/14 05:07:18;;;;;;;4.15;1.55;;;;;;;17.45;66.58;100022.34;1752249;79;21240;-47
2022/07/14 05:09:47;;;;;;;4.30;1.90;;;;;;;17.49;66.69;100024.95;1750951;79;21015;-47
2022/07/14 05:12:16;;;;;;;3.98;1.62;;;;;;;17.48;66.23;100029.12;1748831;79;21015;-47
2022/07/14 05:14:45;;;;;;;5.50;1.80;;;;;;;17.48;66.35;100031.78;1734965;81;21492;-47
2022/07/14 05:17:12;;;;;;;4.17;1.20;;;;;;;17.52;66.25;100036.58;1750067;80;22381;-47
2022/07/14 05:19:46;;;;;;;5.05;1.60;;;;;;;17.62;65.93;100034.51;1753336;79;21121;-48
2022/07/14 05:22:11;;;;;;;5.30;1.82;;;;;;;17.74;65.87;100042.09;1748235;79;21035;-47
2022/07/14 05:24:37;;;;;;;3.45;1.67;;;;;;;17.78;65.83;100042.04;1745358;80;21087;-47
2022/07/14 05:27:04;;;;;;;3.17;1.32;;;;;;;17.78;65.72;100041.52;1752947;80;21082;-47
2022/07/14 05:29:33;;;;;;;3.20;1.52;;;;;;;17.78;65.84;100040.20;1760104;80;21478;-45
2022/07/14 05:32:00;;;;;;;3.77;1.40;;;;;;;17.87;65.99;100037.02;1750559;81;21183;-47
2022/07/14 05:34:33;;;;;;;3.58;1.50;;;;;;;18.03;65.72;100027.23;1755763;79;21455;-47
2022/07/14 05:36:59;;;;;;;5.78;1.57;;;;;;;18.17;65.41;100021.09;1749661;80;21110;-48
2022/07/14 05:39:26;;;;;;;5.12;1.60;;;;;;;18.30;63.74;100034.62;1756300;79;21090;-47
2022/07/14 05:41:53;;;;;;;3.27;1.32;;;;;;;18.41;63.13;100027.19;1750494;79;21082;-47
2022/07/14 05:44:20;;;;;;;4.50;1.50;;;;;;;18.50;63.50;100039.42;1714237;81;21232;-47
2022/07/14 05:46:46;;;;;;;3.27;1.20;;;;;;;18.58;63.84;100038.00;1756305;79;21039;-47
2022/07/14 05:49:12;;;;;;;3.87;1.50;;;;;;;18.66;63.53;100041.06;1757434;79;21039;-48
2022/07/14 05:51:39;;;;;;;3.65;1.60;;;;;;;18.79;63.79;100046.58;1764717;80;21084;-48
2022/07/14 05:54:06;;;;;;;5.35;1.72;;;;;;;18.92;62.82;100045.97;1769630;79;21126;-47
2022/07/14 05:56:34;;;;;;;4.00;1.52;;;;;;;18.99;62.82;100042.05;1747869;79;21554;-47
2022/07/14 05:59:01;;;;;;;4.03;1.55;;;;;;;19.06;61.63;100039.80;1753910;79;21016;-47
2022/07/14 06:01:27;;;;;;;4.50;1.45;;;;;;;19.14;60.45;100037.52;1761697;79;21039;-48
2022/07/14 06:03:56;;;;;;;3.50;1.40;;;;;;;19.15;60.98;100039.17;1759535;79;21082;-48
2022/07/14 06:06:23;;;;;;;2.92;1.30;;;;;;;19.16;60.04;100031.99;1700743;82;21082;-48
2022/07/14 06:08:52;;;;;;;4.67;1.30;;;;;;;19.18;60.43;100041.48;1719406;82;21139;-47
2022/07/14 06:11:19;;;;;;;4.78;1.35;;;;;;;19.20;59.35;100034.11;1766459;79;21581;-47
2022/07/14 06:13:47;;;;;;;4.22;1.20;;;;;;;19.25;59.96;100040.22;1749338;79;21114;-47
2022/07/14 06:16:14;;;;;;;3.35;1.52;;;;;;;19.26;60.33;100046.67;1750331;79;20996;-47
2022/07/14 06:18:41;;;;;;;3.70;1.40;;;;;;;19.30;59.99;100043.14;1758787;79;21074;-48
2022/07/14 06:21:09;;;;;;;3.33;1.32;;;;;;;19.30;59.53;100052.48;1754953;79;22030;-47
2022/07/14 06:23:36;;;;;;;3.42;1.20;;;;;;;19.26;59.50;100050.67;1755523;79;21012;-47
2022/07/14 06:26:12;;;;;;;4.00;1.60;;;;;;;19.22;58.91;100054.73;1722743;81;21051;-46
2022/07/14 06:28:41;;;;;;;3.60;1.65;;;;;;;19.20;59.59;100057.27;1748064;79;21056;-47
2022/07/14 06:31:09;;;;;;;2.83;1.15;;;;;;;19.24;59.82;100055.89;1757333;79;21525;-47
2022/07/14 06:33:38;;;;;;;3.65;1.15;;;;;;;19.35;59.56;100051.89;1766201;79;21035;-47
2022/07/14 06:36:08;;;;;;;4.45;1.15;;;;;;;19.43;59.29;100053.11;1754038;79;21078;-48
2022/07/14 06:38:35;;;;;;;4.00;1.42;;;;;;;19.44;58.66;100051.59;1751228;79;21076;-48
2022/07/14 06:41:02;;;;;;;4.30;1.10;;;;;;;19.51;59.29;100042.84;1718951;82;21016;-47
2022/07/14 06:43:31;;;;;;;5.47;1.20;;;;;;;19.59;58.88;100052.06;1760993;79;21161;-47
2022/07/14 06:45:59;;;;;;;4.45;1.20;;;;;;;19.64;58.63;100046.98;1729211;80;21549;-47
2022/07/14 06:48:26;;;;;;;4.08;1.20;;;;;;;19.66;58.54;100046.28;1767189;79;22216;-47
2022/07/14 06:50:52;;;;;;;3.25;1.40;;;;;;;19.72;58.89;100061.54;1761206;79;22213;-47
2022/07/14 06:53:19;;;;;;;2.72;1.17;;;;;;;19.76;57.95;100052.67;1761250;79;21514;-47
2022/07/14 06:55:46;;;;;;;4.78;1.40;;;;;;;19.80;58.06;100054.78;1765462;79;21533;-47
2022/07/14 06:58:12;;;;;;;5.35;1.17;;;;;;;19.84;57.98;100054.70;1702891;83;21213;-47
2022/07/14 07:00:39;;;;;;;1.95;0.90;;;;;;;19.91;57.54;100048.59;1762883;79;21054;-47
2022/07/14 07:03:12;;;;;;;5.25;1.62;;;;;;;19.98;57.51;100046.28;1726922;82;21089;-47
2022/07/14 07:08:25;;;;;;;4.12;1.30;;;;;;;20.14;56.81;100049.20;1762274;80;21101;-48
2022/07/14 07:10:57;;;;;;;2.35;1.20;;;;;;;20.21;56.54;100053.27;1769321;79;22001;-47
2022/07/14 07:13:26;;;;;;;3.60;1.20;;;;;;;20.23;56.05;100044.02;1736736;80;21090;-48
2022/07/14 07:15:53;;;;;;;2.80;1.25;;;;;;;20.29;55.87;100060.28;1754718;79;21078;-48
2022/07/14 07:18:20;;;;;;;4.10;1.35;;;;;;;20.32;55.39;100054.56;1758850;79;21098;-48
2022/07/14 07:20:46;;;;;;;4.58;1.47;;;;;;;20.35;55.34;100054.98;1762547;79;21093;-47
2022/07/14 07:23:13;;;;;;;4.90;1.20;;;;;;;20.37;54.49;100059.62;1762010;79;21188;-47
2022/07/14 07:25:40;;;;;;;5.05;1.30;;;;;;;20.41;54.96;100055.56;1767186;79;21174;-47
2022/07/14 07:28:07;;;;;;;3.10;1.10;;;;;;;20.48;55.09;100060.95;1774057;79;21368;-48
2022/07/14 07:30:34;;;;;;;2.77;1.17;;;;;;;20.55;55.50;100055.64;1769134;79;21047;-47
2022/07/14 07:33:01;;;;;;;4.53;1.32;;;;;;;20.66;53.84;100060.97;1764999;79;21038;-48
2022/07/14 07:35:28;;;;;;;3.50;1.20;;;;;;;20.74;54.15;100056.80;1772745;79;21122;-48
2022/07/14 07:37:54;;;;;;;2.67;1.17;;;;;;;20.81;53.75;100050.97;1763991;79;21086;-47
2022/07/14 07:40:21;;;;;;;4.50;1.22;;;;;;;20.89;53.83;100057.49;1760962;79;21016;-47
2022/07/14 07:42:48;;;;;;;3.58;1.50;;;;;;;20.99;54.22;100053.64;1757649;79;21113;-48
2022/07/14 07:45:14;;;;;;;2.83;1.32;;;;;;;21.13;54.44;100058.00;1765938;79;21683;-46
2022/07/14 07:47:41;;;;;;;3.83;1.35;;;;;;;21.26;53.83;100054.05;1762733;80;22273;-47
2022/07/14 07:50:10;;;;;;;3.42;1.35;;;;;;;21.39;52.85;100055.13;1759163;79;21088;-47
2022/07/14 07:52:38;;;;;;;3.85;1.35;;;;;;;21.46;52.16;100057.30;1760748;79;21125;-47
2022/07/14 07:55:09;;;;;;;4.78;1.40;;;;;;;21.48;52.17;100062.77;1759901;79;21071;-47
2022/07/14 07:57:37;;;;;;;5.35;1.30;;;;;;;21.47;51.95;100057.13;1764284;79;21272;-47
2022/07/14 08:00:05;;;;;;;4.58;1.70;;;;;;;21.46;52.38;100046.06;1767611;79;21082;-47
2022/07/14 08:02:34;;;;;;;3.58;1.25;;;;;;;21.54;52.12;100059.83;1763259;79;21455;-46
2022/07/14 08:05:01;;;;;;;2.70;1.17;;;;;;;21.61;51.99;100048.61;1766344;79;21093;-47
2022/07/14 08:07:29;;;;;;;3.65;1.67;;;;;;;21.67;51.99;100046.46;1757496;79;21095;-47
2022/07/14 08:09:55;;;;;;;2.80;1.25;;;;;;;21.65;52.26;100045.85;1766220;79;21129;-48
2022/07/14 08:12:22;;;;;;;4.40;1.85;;;;;;;21.68;52.07;100060.14;1754507;79;21133;-48
2022/07/14 08:14:49;;;;;;;3.47;1.35;;;;;;;21.73;51.61;100060.06;1763538;79;21062;-48
2022/07/14 08:17:17;;;;;;;5.75;1.52;;;;;;;21.77;51.11;100073.34;1768317;79;21121;-48
2022/07/14 08:19:43;;;;;;;4.12;1.72;;;;;;;21.83;50.99;100064.50;1763796;79;21056;-48
2022/07/14 08:22:10;;;;;;;4.83;1.60;;;;;;;21.86;51.43;100054.72;1763136;79;21042;-47
2022/07/14 08:24:38;;;;;;;4.37;1.60;;;;;;;21.96;51.73;100059.68;1756930;79;21136;-47
2022/07/14 08:27:04;;;;;;;4.70;1.57;;;;;;;22.03;51.58;100063.98;1704197;82;21064;-46
2022/07/14 08:29:31;;;;;;;6.22;1.80;;;;;;;22.11;52.03;100050.91;1760266;79;21117;-47
2022/07/14 08:31:58;;;;;;;6.17;1.60;;;;;;;22.22;51.57;100054.81;1760273;79;21015;-47
2022/07/14 08:34:24;;;;;;;4.35;1.62;;;;;;;22.34;50.17;100053.70;1762614;79;21591;-47
2022/07/14 08:36:51;;;;;;;4.40;1.80;;;;;;;22.41;50.71;100056.69;1753254;79;21142;-47
2022/07/14 08:39:18;;;;;;;2.77;1.20;;;;;;;22.49;50.36;100050.27;1754907;79;21058;-48
2022/07/14 08:41:44;;;;;;;3.70;1.60;;;;;;;22.54;50.44;100055.82;1756668;80;20992;-49
2022/07/14 08:44:12;;;;;;;3.65;1.55;;;;;;;22.57;49.60;100047.89;1750461;79;21492;-48
2022/07/14 08:46:38;;;;;;;4.05;1.50;;;;;;;22.60;50.13;100047.48;1748807;79;21072;-48
2022/07/14 08:49:06;;;;;;;4.72;1.27;;;;;;;22.74;51.48;100055.78;1751705;79;22234;-48
2022/07/14 08:51:34;;;;;;;3.60;1.50;;;;;;;22.91;50.23;100051.30;1751464;79;21058;-48
2022/07/14 08:54:01;;;;;;;3.10;1.60;;;;;;;23.05;49.88;100054.24;1753662;79;21070;-47
2022/07/14 08:57:32;;;;;;;5.05;1.42;;;;;;;23.15;48.98;100053.30;1805635;77;22603;-49
2022/07/14 08:59:59;;;;;;;4.40;1.55;;;;;;;23.21;49.11;100059.66;1720549;82;20990;-48
2022/07/14 09:02:25;;;;;;;3.75;1.55;;;;;;;23.25;50.32;100062.73;1710746;81;21355;-48
2022/07/14 09:04:52;;;;;;;3.15;1.52;;;;;;;23.27;49.30;100057.47;1711633;83;21104;-47
2022/07/14 09:07:34;;;;;;;3.52;1.35;;;;;;;23.25;49.72;100060.05;1748580;80;21102;-49
2022/07/14 09:10:07;;;;;;;3.37;1.30;;;;;;;23.27;50.61;100056.12;1716537;82;21114;-48
2022/07/14 09:12:34;;;;;;;4.95;1.60;;;;;;;23.37;48.89;100058.36;1745018;80;21564;-48
2022/07/14 09:17:54;;;;;;;6.72;1.77;;;;;;;23.55;48.39;100061.14;1732396;80;21122;-47
2022/07/14 09:20:22;;;;;;;2.75;1.27;;;;;;;23.54;48.54;100060.83;1747737;80;21199;-48
2022/07/14 09:22:49;;;;;;;2.67;1.30;;;;;;;23.47;48.49;100063.23;1734920;80;21186;-48
2022/07/14 09:25:17;;;;;;;5.75;1.45;;;;;;;23.34;48.96;100060.94;1677527;81;21078;-48
2022/07/14 09:27:46;;;;;;;3.00;1.40;;;;;;;23.33;49.12;100057.97;1748933;80;22252;-48
2022/07/14 09:30:13;;;;;;;3.83;1.52;;;;;;;23.42;49.21;100058.53;1745787;81;21054;-48
2022/07/14 09:32:57;;;;;;;3.40;1.50;;;;;;;23.52;48.89;100074.99;1741124;80;21114;-47
2022/07/14 09:35:29;;;;;;;6.30;1.30;;;;;;;23.60;48.16;100055.62;1702592;81;21078;-48
2022/07/14 09:37:56;;;;;;;2.70;1.05;;;;;;;23.76;48.32;100064.51;1735831;80;21088;-49
2022/07/14 09:40:27;;;;;;;5.03;1.50;;;;;;;23.92;47.67;100060.48;1744974;80;21133;-48
2022/07/14 09:42:58;;;;;;;2.80;1.37;;;;;;;23.98;47.08;100060.15;1733324;80;21117;-47
2022/07/14 09:45:33;;;;;;;3.27;1.42;;;;;;;23.95;47.53;100054.67;1732513;80;21501;-49
2022/07/14 09:48:07;;;;;;;;;;;;;;;23.92;47.38;100066.70;1751050;80;21081;-47
2022/07/14 09:50:54;;;;;;;3.20;1.30;;;;;;;23.90;47.80;100066.07;1746870;80;20170;-46
2022/07/14 09:53:24;;;;;;;3.10;1.45;;;;;;;23.87;47.47;100067.03;1740090;80;21242;-48
2022/07/14 09:56:10;;;;;;;3.75;1.75;;;;;;;23.80;47.83;100074.30;1737601;80;21023;-48
2022/07/14 09:58:56;;;;;;;3.85;1.42;;;;;;;23.78;47.96;100077.73;1730361;81;21461;-48
2022/07/14 10:01:26;;;;;;;4.20;1.90;;;;;;;23.79;47.98;100074.83;1757399;79;21000;-48
2022/07/14 10:03:54;;;;;;;3.83;1.98;;;;;;;23.88;47.88;100057.95;1760015;79;21012;-48
2022/07/14 10:06:21;;;;;;;3.50;1.62;;;;;;;23.97;47.75;100072.74;1767502;80;22468;-48
2022/07/14 10:08:57;;;;;;;3.65;1.37;;;;;;;24.04;46.86;100069.50;1757300;80;21584;-48
2022/07/14 10:11:24;;;;;;;3.70;1.60;;;;;;;24.11;46.60;100063.54;1766243;79;21110;-48
2022/07/14 10:13:50;;;;;;;3.65;1.60;;;;;;;24.16;46.66;100070.11;1761006;79;21098;-48
2022/07/14 10:16:18;;;;;;;4.40;2.05;;;;;;;24.24;46.81;100074.71;1766593;79;21356;-48
2022/07/14 10:18:45;;;;;;;3.70;1.60;;;;;;;24.36;46.31;100071.28;1757239;79;21149;-48
2022/07/14 10:21:11;;;;;;;4.95;2.00;;;;;;;24.43;45.87;100066.15;1733404;82;21098;-48
2022/07/14 10:23:38;;;;;;;3.90;2.10;;;;;;;24.47;46.19;100066.52;1765917;80;21584;-49
2022/07/14 10:26:08;;;;;;;4.83;1.90;;;;;;;24.45;45.72;100064.05;1703755;82;21094;-47
2022/07/14 10:28:33;;;;;;;3.80;1.87;;;;;;;24.39;45.68;100088.31;1752871;79;21579;-48
2022/07/14 10:31:26;;;;;;;3.60;1.55;;;;;;;24.39;45.76;100068.16;1772870;80;21116;-48
2022/07/14 10:34:28;;;;;;;3.65;1.60;;;;;;;24.45;45.63;100074.00;1762382;80;21427;-47
2022/07/14 10:37:15;;;;;;;5.75;2.20;;;;;;;24.50;46.15;100082.22;1758266;80;21118;-46
2022/07/14 10:40:04;;;;;;;4.97;2.25;;;;;;;24.52;46.38;100077.44;1767114;80;21631;-47
2022/07/14 10:42:52;;;;;;;3.83;1.80;;;;;;;24.51;45.60;100081.69;1751773;79;21157;-48
2022/07/14 10:45:18;;;;;;;5.35;2.37;;;;;;;24.48;45.99;100077.59;1762551;80;21233;-48
2022/07/14 10:47:49;;;;;;;5.20;2.15;;;;;;;24.54;46.32;100087.98;1762344;79;21059;-48
2022/07/14 10:50:27;;;;;;;5.28;2.00;;;;;;;24.58;45.50;100076.59;1767353;80;21000;-48
2022/07/14 10:53:00;;;;;;;4.83;2.17;;;;;;;24.58;46.10;100071.20;1766270;80;20975;-48
2022/07/14 10:55:33;;;;;;;6.35;2.12;;;;;;;24.57;44.73;100072.77;1757220;79;21059;-48
2022/07/14 10:58:08;;;;;;;6.10;2.20;;;;;;;24.57;45.25;100067.39;1769151;79;21541;-48
2022/07/14 11:00:47;;;;;;;4.58;2.12;;;;;;;24.64;45.10;100079.71;1777181;79;21699;-47
2022/07/14 11:03:21;;;;;;;3.90;2.05;;;;;;;24.69;45.10;100072.33;1769001;79;21537;-47
2022/07/14 11:08:36;;;;;;;4.20;2.13;;;;;;;24.94;44.55;100068.75;1777615;80;21160;-47
2022/07/14 11:11:08;;;;;;;5.28;1.90;;;;;;;25.08;45.54;100066.70;1777966;80;21922;-48
2022/07/14 11:13:32;;;;;;;4.12;2.02;;;;;;;25.18;45.00;100079.10;1771456;79;20954;-48
2022/07/14 11:16:03;;;;;;;4.45;2.10;;;;;;;25.16;43.83;100071.78;1770703;80;21105;-47
2022/07/14 11:18:41;;;;;;;4.78;2.27;;;;;;;25.10;44.13;100075.38;1767073;79;21027;-48
2022/07/14 11:21:19;;;;;;;5.70;2.60;;;;;;;25.03;44.41;100073.60;1772301;80;21035;-48
2022/07/14 11:23:53;;;;;;;4.80;2.00;;;;;;;25.00;44.66;100080.78;1773285;79;21088;-48
2022/07/14 11:26:44;;;;;;;5.35;2.65;;;;;;;25.01;45.04;100067.60;1772344;80;20995;-48
2022/07/14 11:29:12;;;;;;;5.28;2.10;;;;;;;25.10;45.10;100068.14;1777155;80;21499;-47
2022/07/14 11:31:47;;;;;;;4.10;2.10;;;;;;;25.24;45.03;100074.17;1778709;79;20935;-47
2022/07/14 11:37:16;;;;;;;5.08;2.08;;;;;;;25.45;44.96;100056.70;1753184;79;21639;-48
2022/07/14 11:39:44;;;;;;;5.22;2.02;;;;;;;25.57;43.02;100055.39;1757839;80;20979;-48
2022/07/14 11:42:12;;;;;;;5.00;2.10;;;;;;;25.63;42.47;100043.70;1758400;79;20927;-48
2022/07/14 11:44:44;;;;;;;3.85;2.05;;;;;;;25.68;41.76;100044.37;1765762;79;20998;-48
2022/07/14 11:47:21;;;;;;;5.58;2.05;;;;;;;25.77;41.51;100047.02;1768656;79;21141;-48
2022/07/14 11:49:58;;;;;;;4.78;2.20;;;;;;;25.84;40.55;100041.52;1763460;80;21096;-48
2022/07/14 11:52:33;;;;;;;4.30;2.10;;;;;;;25.91;41.95;100030.13;1762319;79;21342;-48
2022/07/14 11:55:03;;;;;;;3.75;1.75;;;;;;;26.04;41.56;100044.77;1771952;80;21062;-48